sensor_id;sensor_type;location;lat;lon;timestamp;pressure;altitude;pressure_sealevel;temperature;humidity
9189;BME280;34313;50.780;6.084;2023-02-02T00:01:26;100149.44;;;7.08;100.00
9189;BME280;34313;50.780;6.084;2023-02-02T00:03:52;100141.53;;;7.09;100.00
9189;BME280;34313;50.780;6.084;2023-02-02T00:06:19;100145.91;;;7.09;100.00
9189;BME280;34313;50.780;6.084;2023-02-02T00:08:45;100152.84;;;7.10;100.00
9189;BME280;34313;50.780;6.084;2023-02-02T00:11:12;100151.16;;;7.09;100.00
9189;BME280;34313;50.780;6.084;2023-02-02T00:13:38;100155.75;;;7.02;100.00
9189;BME280;34313;50.780;6.084;2023-02-02T00:18:51;100154.56;;;7.11;100.00
9189;BME280;34313;50.780;6.084;2023-02-02T00:21:17;100150.19;;;7.11;100.00
9189;BME280;34313;50.780;6.084;2023-02-02T00:23:42;100155.44;;;7.11;100.00
9189;BME280;34313;50.780;6.084;2023-02-02T00:26:08;100159.59;;;7.17;100.00
9189;BME280;34313;50.780;6.084;2023-02-02T00:28:33;100149.75;;;7.24;100.00
9189;BME280;34313;50.780;6.084;2023-02-02T00:30:59;100150.97;;;7.13;100.00
9189;BME280;34313;50.780;6.084;2023-02-02T00:33:24;100134.44;;;7.11;100.00
9189;BME280;34313;50.780;6.084;2023-02-02T00:35:53;100153.25;;;7.24;100.00
9189;BME280;34313;50.780;6.084;2023-02-02T00:38:18;100125.41;;;7.20;100.00
9189;BME280;34313;50.780;6.084;2023-02-02T00:40:44;100146.44;;;7.18;100.00
9189;BME280;34313;50.780;6.084;2023-02-02T00:43:10;100134.34;;;7.14;100.00
9189;BME280;34313;50.780;6.084;2023-02-02T00:45:36;100133.34;;;7.18;100.00
9189;BME280;34313;50.780;6.084;2023-02-02T00:48:02;100131.72;;;7.14;100.00
9189;BME280;34313;50.780;6.084;2023-02-02T00:50:28;100144.88;;;7.13;100.00
9189;BME280;34313;50.780;6.084;2023-02-02T00:52:53;100132.50;;;7.18;100.00
9189;BME280;34313;50.780;6.084;2023-02-02T00:55:19;100135.38;;;7.10;100.00
9189;BME280;34313;50.780;6.084;2023-02-02T00:57:44;100141.41;;;7.12;100.00
9189;BME280;34313;50.780;6.084;2023-02-02T01:00:16;100138.75;;;7.14;100.00
9189;BME280;34313;50.780;6.084;2023-02-02T01:02:42;100149.09;;;7.17;100.00
9189;BME280;34313;50.780;6.084;2023-02-02T01:05:08;100145.81;;;7.12;100.00
9189;BME280;34313;50.780;6.084;2023-02-02T01:07:34;100137.06;;;7.11;100.00
9189;BME280;34313;50.780;6.084;2023-02-02T01:10:00;100131.84;;;7.11;100.00
9189;BME280;34313;50.780;6.084;2023-02-02T01:12:25;100139.81;;;7.08;100.00
9189;BME280;34313;50.780;6.084;2023-02-02T01:14:50;100137.28;;;7.05;100.00
9189;BME280;34313;50.780;6.084;2023-02-02T01:17:16;100143.44;;;7.04;100.00
9189;BME280;34313;50.780;6.084;2023-02-02T01:19:41;100138.06;;;7.09;100.00
9189;BME280;34313;50.780;6.084;2023-02-02T01:22:07;100149.44;;;7.08;100.00
9189;BME280;34313;50.780;6.084;2023-02-02T01:24:33;100139.97;;;7.04;100.00
9189;BME280;34313;50.780;6.084;2023-02-02T01:26:58;100142.53;;;7.05;100.00
9189;BME280;34313;50.780;6.084;2023-02-02T01:29:24;100151.19;;;7.07;100.00
9189;BME280;34313;50.780;6.084;2023-02-02T01:31:49;100132.16;;;7.02;100.00
9189;BME280;34313;50.780;6.084;2023-02-02T01:34:14;100138.38;;;6.99;100.00
9189;BME280;34313;50.780;6.084;2023-02-02T01:36:40;100143.66;;;6.98;100.00
9189;BME280;34313;50.780;6.084;2023-02-02T01:39:05;100142.59;;;7.04;100.00
9189;BME280;34313;50.780;6.084;2023-02-02T01:41:31;100142.59;;;7.04;100.00
9189;BME280;34313;50.780;6.084;2023-02-02T01:43:59;100138.50;;;6.95;100.00
9189;BME280;34313;50.780;6.084;2023-02-02T01:46:28;100155.25;;;6.91;100.00
9189;BME280;34313;50.780;6.084;2023-02-02T01:49:12;100148.94;;;6.96;100.00
9189;BME280;34313;50.780;6.084;2023-02-02T01:51:46;100156.91;;;6.93;100.00
9189;BME280;34313;50.780;6.084;2023-02-02T01:54:16;100149.00;;;6.95;100.00
9189;BME280;34313;50.780;6.084;2023-02-02T01:56:48;100153.13;;;7.02;100.00
9189;BME280;34313;50.780;6.084;2023-02-02T01:59:16;100152.56;;;6.92;100.00
9189;BME280;34313;50.780;6.084;2023-02-02T02:01:43;100147.97;;;6.99;100.00
9189;BME280;34313;50.780;6.084;2023-02-02T02:04:09;100154.31;;;6.92;100.00
9189;BME280;34313;50.780;6.084;2023-02-02T02:06:35;100162.91;;;6.97;100.00
9189;BME280;34313;50.780;6.084;2023-02-02T02:09:03;100162.94;;;6.95;100.00
9189;BME280;34313;50.780;6.084;2023-02-02T02:11:30;100168.78;;;7.04;100.00
9189;BME280;34313;50.780;6.084;2023-02-02T02:13:57;100170.44;;;7.06;100.00
9189;BME280;34313;50.780;6.084;2023-02-02T02:23:39;100144.19;;;7.08;100.00
9189;BME280;34313;50.780;6.084;2023-02-02T02:29:31;100136.53;;;7.02;100.00
9189;BME280;34313;50.780;6.084;2023-02-02T02:37:48;100154.72;;;7.06;100.00
9189;BME280;34313;50.780;6.084;2023-02-02T02:40:27;100156.41;;;7.09;100.00
9189;BME280;34313;50.780;6.084;2023-02-02T02:42:58;100150.41;;;7.05;100.00
9189;BME280;34313;50.780;6.084;2023-02-02T02:45:26;100148.63;;;7.06;100.00
9189;BME280;34313;50.780;6.084;2023-02-02T02:47:53;100155.59;;;7.07;100.00
9189;BME280;34313;50.780;6.084;2023-02-02T02:50:19;100152.94;;;7.08;100.00
9189;BME280;34313;50.780;6.084;2023-02-02T02:52:46;100147.59;;;7.10;100.00
9189;BME280;34313;50.780;6.084;2023-02-02T02:55:13;100150.44;;;7.04;100.00
9189;BME280;34313;50.780;6.084;2023-02-02T02:58:05;100149.34;;;7.11;100.00
9189;BME280;34313;50.780;6.084;2023-02-02T03:00:44;100142.63;;;7.02;100.00
9189;BME280;34313;50.780;6.084;2023-02-02T03:03:20;100146.00;;;7.06;100.00
9189;BME280;34313;50.780;6.084;2023-02-02T03:08:44;100157.34;;;7.06;100.00
9189;BME280;34313;50.780;6.084;2023-02-02T03:11:12;100160.84;;;7.07;100.00
9189;BME280;34313;50.780;6.084;2023-02-02T03:13:40;100149.75;;;6.98;100.00
9189;BME280;34313;50.780;6.084;2023-02-02T03:16:08;100149.59;;;7.03;100.00
9189;BME280;34313;50.780;6.084;2023-02-02T03:18:33;100138.25;;;7.03;100.00
9189;BME280;34313;50.780;6.084;2023-02-02T03:20:59;100152.38;;;6.98;100.00
9189;BME280;34313;50.780;6.084;2023-02-02T03:23:25;100156.72;;;6.99;100.00
9189;BME280;34313;50.780;6.084;2023-02-02T03:25:50;100166.97;;;7.06;100.00
9189;BME280;34313;50.780;6.084;2023-02-02T03:28:16;100168.13;;;6.97;100.00
9189;BME280;34313;50.780;6.084;2023-02-02T03:30:43;100168.03;;;7.00;100.00
9189;BME280;34313;50.780;6.084;2023-02-02T03:33:09;100161.25;;;6.94;100.00
9189;BME280;34313;50.780;6.084;2023-02-02T03:35:36;100176.84;;;6.97;100.00
9189;BME280;34313;50.780;6.084;2023-02-02T03:38:01;100163.03;;;6.92;100.00
9189;BME280;34313;50.780;6.084;2023-02-02T03:40:28;100166.50;;;6.94;100.00
9189;BME280;34313;50.780;6.084;2023-02-02T03:42:53;100182.03;;;6.99;100.00
9189;BME280;34313;50.780;6.084;2023-02-02T03:45:19;100169.88;;;6.98;100.00
9189;BME280;34313;50.780;6.084;2023-02-02T03:47:45;100172.44;;;6.99;100.00
9189;BME280;34313;50.780;6.084;2023-02-02T03:50:10;100180.03;;;7.07;100.00
9189;BME280;34313;50.780;6.084;2023-02-02T03:52:36;100178.47;;;7.02;100.00
9189;BME280;34313;50.780;6.084;2023-02-02T03:55:01;100175.59;;;7.09;100.00
9189;BME280;34313;50.780;6.084;2023-02-02T03:57:26;100173.06;;;7.06;100.00
9189;BME280;34313;50.780;6.084;2023-02-02T03:59:52;100175.69;;;7.06;100.00
9189;BME280;34313;50.780;6.084;2023-02-02T04:02:17;100171.47;;;7.02;100.00
9189;BME280;34313;50.780;6.084;2023-02-02T04:04:42;100182.63;;;7.09;100.00
9189;BME280;34313;50.780;6.084;2023-02-02T04:07:08;100174.56;;;7.13;100.00
9189;BME280;34313;50.780;6.084;2023-02-02T04:09:33;100175.59;;;7.09;100.00
9189;BME280;34313;50.780;6.084;2023-02-02T04:11:58;100168.44;;;7.14;100.00
9189;BME280;34313;50.780;6.084;2023-02-02T04:14:24;100169.50;;;7.09;100.00
9189;BME280;34313;50.780;6.084;2023-02-02T04:16:49;100187.16;;;7.04;100.00
9189;BME280;34313;50.780;6.084;2023-02-02T04:19:14;100188.59;;;7.12;100.00
9189;BME280;34313;50.780;6.084;2023-02-02T04:21:40;100186.94;;;7.10;100.00
9189;BME280;34313;50.780;6.084;2023-02-02T04:24:08;100198.25;;;7.12;100.00
9189;BME280;34313;50.780;6.084;2023-02-02T04:26:34;100194.03;;;7.06;100.00
9189;BME280;34313;50.780;6.084;2023-02-02T04:28:59;100187.09;;;7.05;100.00
9189;BME280;34313;50.780;6.084;2023-02-02T04:31:25;100198.44;;;7.06;100.00
9189;BME280;34313;50.780;6.084;2023-02-02T04:33:51;100180.09;;;7.06;100.00
9189;BME280;34313;50.780;6.084;2023-02-02T04:36:16;100179.28;;;7.04;100.00
9189;BME280;34313;50.780;6.084;2023-02-02T04:38:42;100185.22;;;7.09;100.00
9189;BME280;34313;50.780;6.084;2023-02-02T04:41:10;100190.44;;;7.10;100.00
9189;BME280;34313;50.780;6.084;2023-02-02T04:43:36;100185.22;;;7.09;100.00
9189;BME280;34313;50.780;6.084;2023-02-02T04:46:02;100193.22;;;7.04;100.00
9189;BME280;34313;50.780;6.084;2023-02-02T04:48:28;100187.19;;;7.02;100.00
9189;BME280;34313;50.780;6.084;2023-02-02T04:51:03;100205.97;;;6.88;100.00
9189;BME280;34313;50.780;6.084;2023-02-02T04:53:29;100203.25;;;6.91;100.00
9189;BME280;34313;50.780;6.084;2023-02-02T04:55:55;100206.59;;;6.96;100.00
9189;BME280;34313;50.780;6.084;2023-02-02T04:58:21;100206.59;;;6.96;100.00
9189;BME280;34313;50.780;6.084;2023-02-02T05:00:46;100209.31;;;6.93;100.00
9189;BME280;34313;50.780;6.084;2023-02-02T05:03:12;100211.31;;;6.85;100.00
9189;BME280;34313;50.780;6.084;2023-02-02T05:05:37;100210.53;;;6.81;100.00
9189;BME280;34313;50.780;6.084;2023-02-02T05:08:02;100212.91;;;6.91;100.00
9189;BME280;34313;50.780;6.084;2023-02-02T05:10:28;100220.63;;;6.94;100.00
9189;BME280;34313;50.780;6.084;2023-02-02T05:12:54;100225.09;;;6.92;100.00
9189;BME280;34313;50.780;6.084;2023-02-02T05:15:20;100224.31;;;6.88;100.00
9189;BME280;34313;50.780;6.084;2023-02-02T05:17:49;100238.06;;;6.96;100.00
9189;BME280;34313;50.780;6.084;2023-02-02T05:20:15;100234.47;;;6.99;100.00
9189;BME280;34313;50.780;6.084;2023-02-02T05:22:41;100228.41;;;6.97;100.00
9189;BME280;34313;50.780;6.084;2023-02-02T05:25:07;100228.50;;;6.94;100.00
9189;BME280;34313;50.780;6.084;2023-02-02T05:27:33;100221.53;;;6.94;100.00
9189;BME280;34313;50.780;6.084;2023-02-02T05:29:58;100217.22;;;6.92;100.00
9189;BME280;34313;50.780;6.084;2023-02-02T05:32:24;100214.69;;;6.89;100.00
9189;BME280;34313;50.780;6.084;2023-02-02T05:34:49;100212.03;;;6.90;100.00
9189;BME280;34313;50.780;6.084;2023-02-02T05:37:15;100205.78;;;6.94;100.00
9189;BME280;34313;50.780;6.084;2023-02-02T05:39:40;100205.22;;;6.85;100.00
9189;BME280;34313;50.780;6.084;2023-02-02T05:42:06;100214.91;;;6.82;100.00
9189;BME280;34313;50.780;6.084;2023-02-02T05:44:31;100201.63;;;6.87;100.00
9189;BME280;34313;50.780;6.084;2023-02-02T05:46:56;100206.81;;;6.89;100.00
9189;BME280;34313;50.780;6.084;2023-02-02T05:49:22;100198.25;;;6.84;100.00
9189;BME280;34313;50.780;6.084;2023-02-02T05:51:49;100205.16;;;6.86;100.00
9189;BME280;34313;50.780;6.084;2023-02-02T05:54:16;100205.03;;;6.91;100.00
9189;BME280;34313;50.780;6.084;2023-02-02T05:56:45;100210.28;;;6.91;100.00
9189;BME280;34313;50.780;6.084;2023-02-02T05:59:11;100214.59;;;6.92;100.00
9189;BME280;34313;50.780;6.084;2023-02-02T06:01:36;100212.22;;;6.84;100.00
9189;BME280;34313;50.780;6.084;2023-02-02T06:04:02;100226.94;;;6.88;100.00
9189;BME280;34313;50.780;6.084;2023-02-02T06:06:27;100220.31;;;6.76;100.00
9189;BME280;34313;50.780;6.084;2023-02-02T06:08:52;100228.94;;;6.80;100.00
9189;BME280;34313;50.780;6.084;2023-02-02T06:11:18;100227.25;;;6.79;100.00
9189;BME280;34313;50.780;6.084;2023-02-02T06:13:43;100213.34;;;6.77;100.00
9189;BME280;34313;50.780;6.084;2023-02-02T06:16:09;100217.59;;;6.79;100.00
9189;BME280;34313;50.780;6.084;2023-02-02T06:18:35;100208.13;;;6.75;100.00
9189;BME280;34313;50.780;6.084;2023-02-02T06:21:03;100219.50;;;6.74;100.00
9189;BME280;34313;50.780;6.084;2023-02-02T06:23:30;100225.66;;;6.73;100.00
9189;BME280;34313;50.780;6.084;2023-02-02T06:25:56;100229.19;;;6.72;100.00
9189;BME280;34313;50.780;6.084;2023-02-02T06:28:22;100220.56;;;6.69;100.00
9189;BME280;34313;50.780;6.084;2023-02-02T06:30:47;100235.19;;;6.76;100.00
9189;BME280;34313;50.780;6.084;2023-02-02T06:33:12;100243.88;;;6.76;100.00
9189;BME280;34313;50.780;6.084;2023-02-02T06:35:37;100241.28;;;6.76;100.00
9189;BME280;34313;50.780;6.084;2023-02-02T06:38:03;100243.13;;;6.73;100.00
9189;BME280;34313;50.780;6.084;2023-02-02T06:40:28;100241.38;;;6.73;100.00
9189;BME280;34313;50.780;6.084;2023-02-02T06:42:58;100250.09;;;6.74;100.00
9189;BME280;34313;50.780;6.084;2023-02-02T06:45:24;100234.41;;;6.72;100.00
9189;BME280;34313;50.780;6.084;2023-02-02T06:47:50;100235.28;;;6.73;100.00
9189;BME280;34313;50.780;6.084;2023-02-02T06:50:16;100242.28;;;6.72;100.00
9189;BME280;34313;50.780;6.084;2023-02-02T06:52:47;100246.38;;;6.81;100.00
9189;BME280;34313;50.780;6.084;2023-02-02T06:55:12;100242.78;;;6.84;100.00
9189;BME280;34313;50.780;6.084;2023-02-02T06:57:38;100233.69;;;6.67;100.00
9189;BME280;34313;50.780;6.084;2023-02-02T07:00:04;100250.72;;;6.82;100.00
9189;BME280;34313;50.780;6.084;2023-02-02T07:02:29;100259.19;;;6.90;100.00
9189;BME280;34313;50.780;6.084;2023-02-02T07:04:54;100246.09;;;6.90;100.00
9189;BME280;34313;50.780;6.084;2023-02-02T07:07:20;100239.41;;;6.80;100.00
9189;BME280;34313;50.780;6.084;2023-02-02T07:09:45;100254.16;;;6.84;100.00
9189;BME280;34313;50.780;6.084;2023-02-02T07:12:10;100254.88;;;6.89;100.00
9189;BME280;34313;50.780;6.084;2023-02-02T07:14:36;100248.97;;;6.82;100.00
9189;BME280;34313;50.780;6.084;2023-02-02T07:17:02;100249.84;;;6.81;100.00
9189;BME280;34313;50.780;6.084;2023-02-02T07:19:27;100233.28;;;6.81;100.00
9189;BME280;34313;50.780;6.084;2023-02-02T07:21:53;100249.75;;;6.85;100.00
9189;BME280;34313;50.780;6.084;2023-02-02T07:24:18;100248.91;;;6.84;100.00
9189;BME280;34313;50.780;6.084;2023-02-02T07:26:43;100270.56;;;6.91;100.00
9189;BME280;34313;50.780;6.084;2023-02-02T07:29:11;100262.06;;;6.82;100.00
9189;BME280;34313;50.780;6.084;2023-02-02T07:31:38;100277.50;;;6.92;100.00
9189;BME280;34313;50.780;6.084;2023-02-02T07:34:03;100279.97;;;6.96;100.00
9189;BME280;34313;50.780;6.084;2023-02-02T07:36:29;100281.78;;;6.94;100.00
9189;BME280;34313;50.780;6.084;2023-02-02T07:38:54;100279.94;;;6.98;100.00
9189;BME280;34313;50.780;6.084;2023-02-02T07:41:21;100280.66;;;7.03;100.00
9189;BME280;34313;50.780;6.084;2023-02-02T07:43:47;100276.44;;;6.97;100.00
9189;BME280;34313;50.780;6.084;2023-02-02T07:46:12;100262.69;;;6.91;100.00
9189;BME280;34313;50.780;6.084;2023-02-02T07:48:38;100284.25;;;6.99;100.00
9189;BME280;34313;50.780;6.084;2023-02-02T07:51:06;100277.28;;;6.99;100.00
9189;BME280;34313;50.780;6.084;2023-02-02T07:53:33;100284.16;;;7.02;100.00
9189;BME280;34313;50.780;6.084;2023-02-02T07:58:34;100271.69;;;7.10;100.00
9189;BME280;34313;50.780;6.084;2023-02-02T08:01:04;100273.34;;;7.13;100.00
9189;BME280;34313;50.780;6.084;2023-02-02T08:03:30;100277.69;;;7.14;100.00
9189;BME280;34313;50.780;6.084;2023-02-02T08:05:56;100265.72;;;7.05;100.00
9189;BME280;34313;50.780;6.084;2023-02-02T08:08:22;100286.44;;;7.13;100.00
9189;BME280;34313;50.780;6.084;2023-02-02T08:10:52;100284.03;;;7.07;100.00
9189;BME280;34313;50.780;6.084;2023-02-02T08:13:18;100289.91;;;7.13;100.00
9189;BME280;34313;50.780;6.084;2023-02-02T08:15:44;100284.78;;;7.10;100.00
9189;BME280;34313;50.780;6.084;2023-02-02T08:18:10;100290.13;;;7.07;100.00
9189;BME280;34313;50.780;6.084;2023-02-02T08:20:36;100295.13;;;7.15;100.00
9189;BME280;34313;50.780;6.084;2023-02-02T08:23:01;100302.09;;;7.16;100.00
9189;BME280;34313;50.780;6.084;2023-02-02T08:25:26;100300.28;;;7.18;100.00
9189;BME280;34313;50.780;6.084;2023-02-02T08:27:56;100296.75;;;7.19;100.00
9189;BME280;34313;50.780;6.084;2023-02-02T08:30:23;100309.09;;;7.15;100.00
9189;BME280;34313;50.780;6.084;2023-02-02T08:32:49;100306.47;;;7.15;100.00
9189;BME280;34313;50.780;6.084;2023-02-02T08:35:14;100309.75;;;7.22;100.00
9189;BME280;34313;50.780;6.084;2023-02-02T08:37:39;100309.03;;;7.17;100.00
9189;BME280;34313;50.780;6.084;2023-02-02T08:40:05;100305.50;;;7.18;100.00
9189;BME280;34313;50.780;6.084;2023-02-02T08:42:31;100316.13;;;7.13;100.00
9189;BME280;34313;50.780;6.084;2023-02-02T08:44:56;100329.88;;;7.22;100.00
9189;BME280;34313;50.780;6.084;2023-02-02T08:47:21;100330.84;;;7.19;100.00
9189;BME280;34313;50.780;6.084;2023-02-02T08:49:47;100339.31;;;7.27;100.00
9189;BME280;34313;50.780;6.084;2023-02-02T08:52:12;100328.09;;;7.22;100.00
9189;BME280;34313;50.780;6.084;2023-02-02T08:54:38;100343.56;;;7.31;100.00
9189;BME280;34313;50.780;6.084;2023-02-02T08:57:03;100326.19;;;7.27;100.00
9189;BME280;34313;50.780;6.084;2023-02-02T08:59:28;100323.31;;;7.36;100.00
9189;BME280;34313;50.780;6.084;2023-02-02T09:01:54;100319.63;;;7.42;100.00
9189;BME280;34313;50.780;6.084;2023-02-02T09:04:21;100330.91;;;7.44;100.00
9189;BME280;34313;50.780;6.084;2023-02-02T09:06:46;100350.16;;;7.43;100.00
9189;BME280;34313;50.780;6.084;2023-02-02T09:09:13;100343.00;;;7.48;100.00
9189;BME280;34313;50.780;6.084;2023-02-02T09:11:40;100344.53;;;7.55;100.00
9189;BME280;34313;50.780;6.084;2023-02-02T09:14:07;100346.25;;;7.56;100.00
9189;BME280;34313;50.780;6.084;2023-02-02T09:16:33;100355.94;;;7.54;100.00
9189;BME280;34313;50.780;6.084;2023-02-02T09:18:59;100360.09;;;7.62;100.00
9189;BME280;34313;50.780;6.084;2023-02-02T09:21:25;100366.13;;;7.64;100.00
9189;BME280;34313;50.780;6.084;2023-02-02T09:23:51;100363.16;;;7.74;100.00
9189;BME280;34313;50.780;6.084;2023-02-02T09:26:25;100372.66;;;7.79;100.00
9189;BME280;34313;50.780;6.084;2023-02-02T09:28:53;100385.03;;;7.75;100.00
9189;BME280;34313;50.780;6.084;2023-02-02T09:31:20;100385.88;;;7.75;100.00
9189;BME280;34313;50.780;6.084;2023-02-02T09:33:45;100399.09;;;7.72;100.00
9189;BME280;34313;50.780;6.084;2023-02-02T09:38:37;100395.81;;;7.66;100.00
9189;BME280;34313;50.780;6.084;2023-02-02T09:50:05;100417.63;;;7.94;100.00
9189;BME280;34313;50.780;6.084;2023-02-02T09:52:40;100407.00;;;7.98;100.00
9189;BME280;34313;50.780;6.084;2023-02-02T09:55:27;100404.09;;;8.07;100.00
9189;BME280;34313;50.780;6.084;2023-02-02T09:57:59;100395.59;;;8.25;100.00
9189;BME280;34313;50.780;6.084;2023-02-02T10:00:32;100414.97;;;8.48;100.00
9189;BME280;34313;50.780;6.084;2023-02-02T10:03:41;100411.59;;;8.44;100.00
9189;BME280;34313;50.780;6.084;2023-02-02T10:09:07;100433.06;;;8.30;100.00
9189;BME280;34313;50.780;6.084;2023-02-02T10:14:24;100444.72;;;8.22;100.00
9189;BME280;34313;50.780;6.084;2023-02-02T10:16:54;100457.72;;;8.26;100.00
9189;BME280;34313;50.780;6.084;2023-02-02T10:19:20;100457.50;;;8.32;100.00
9189;BME280;34313;50.780;6.084;2023-02-02T10:22:14;100456.78;;;8.27;100.00
9189;BME280;34313;50.780;6.084;2023-02-02T10:24:42;100472.50;;;8.29;100.00
9189;BME280;34313;50.780;6.084;2023-02-02T10:27:13;100472.16;;;8.13;100.00
9189;BME280;34313;50.780;6.084;2023-02-02T10:32:30;100481.84;;;8.11;100.00
9189;BME280;34313;50.780;6.084;2023-02-02T10:35:20;100480.84;;;8.15;100.00
9189;BME280;34313;50.780;6.084;2023-02-02T10:38:04;100470.47;;;8.12;100.00
9189;BME280;34313;50.780;6.084;2023-02-02T10:46:22;100479.41;;;8.33;100.00
9189;BME280;34313;50.780;6.084;2023-02-02T10:48:49;100473.72;;;8.47;100.00
9189;BME280;34313;50.780;6.084;2023-02-02T10:51:21;100474.88;;;8.63;100.00
9189;BME280;34313;50.780;6.084;2023-02-02T10:53:56;100461.88;;;8.85;100.00
9189;BME280;34313;50.780;6.084;2023-02-02T10:56:30;100467.38;;;9.03;98.98
9189;BME280;34313;50.780;6.084;2023-02-02T10:59:03;100453.94;;;9.11;98.24
9189;BME280;34313;50.780;6.084;2023-02-02T11:01:30;100464.09;;;9.20;97.18
9189;BME280;34313;50.780;6.084;2023-02-02T11:03:55;100474.41;;;9.26;96.71
9189;BME280;34313;50.780;6.084;2023-02-02T11:06:39;100477.31;;;9.18;95.63
9189;BME280;34313;50.780;6.084;2023-02-02T11:09:18;100460.47;;;9.24;95.65
9189;BME280;34313;50.780;6.084;2023-02-02T11:11:45;100458.28;;;9.12;95.62
9189;BME280;34313;50.780;6.084;2023-02-02T11:14:27;100463.00;;;9.25;95.16
9189;BME280;34313;50.780;6.084;2023-02-02T11:17:05;100463.16;;;9.22;95.12
9189;BME280;34313;50.780;6.084;2023-02-02T11:19:32;100462.69;;;9.35;94.70
9189;BME280;34313;50.780;6.084;2023-02-02T11:22:01;100453.09;;;9.56;94.60
9189;BME280;34313;50.780;6.084;2023-02-02T11:24:45;100461.75;;;9.59;93.77
9189;BME280;34313;50.780;6.084;2023-02-02T11:27:14;100437.66;;;9.46;93.51
9189;BME280;34313;50.780;6.084;2023-02-02T11:29:45;100453.97;;;9.56;93.14
9189;BME280;34313;50.780;6.084;2023-02-02T11:32:24;100462.22;;;9.69;92.30
9189;BME280;34313;50.780;6.084;2023-02-02T11:37:31;100461.88;;;9.78;91.96
9189;BME280;34313;50.780;6.084;2023-02-02T11:42:56;100462.53;;;9.61;91.41
9189;BME280;34313;50.780;6.084;2023-02-02T11:45:33;100455.47;;;9.62;91.33
9189;BME280;34313;50.780;6.084;2023-02-02T11:48:20;100461.75;;;9.59;91.12
9189;BME280;34313;50.780;6.084;2023-02-02T11:50:49;100447.78;;;9.57;91.25
9189;BME280;34313;50.780;6.084;2023-02-02T11:53:22;100450.97;;;9.65;90.78
9189;BME280;34313;50.780;6.084;2023-02-02T11:55:48;100443.78;;;9.69;90.31
9189;BME280;34313;50.780;6.084;2023-02-02T11:58:21;100453.72;;;9.62;91.25
9189;BME280;34313;50.780;6.084;2023-02-02T12:00:58;100447.84;;;9.78;90.74
9189;BME280;34313;50.780;6.084;2023-02-02T12:05:55;100441.97;;;9.71;90.33
9189;BME280;34313;50.780;6.084;2023-02-02T12:08:21;100440.94;;;9.75;90.41
9189;BME280;34313;50.780;6.084;2023-02-02T12:10:59;100431.59;;;10.11;88.93
9189;BME280;34313;50.780;6.084;2023-02-02T12:16:21;100429.88;;;10.52;86.22
9189;BME280;34313;50.780;6.084;2023-02-02T12:19:14;100414.06;;;10.32;85.91
9189;BME280;34313;50.780;6.084;2023-02-02T12:24:34;100419.94;;;10.59;84.98
9189;BME280;34313;50.780;6.084;2023-02-02T12:27:24;100413.84;;;10.57;84.98
9189;BME280;34313;50.780;6.084;2023-02-02T12:30:14;100409.09;;;10.65;84.76
9189;BME280;34313;50.780;6.084;2023-02-02T12:43:43;100399.06;;;10.94;82.31
9189;BME280;34313;50.780;6.084;2023-02-02T12:46:35;100403.50;;;10.92;82.85
9189;BME280;34313;50.780;6.084;2023-02-02T12:51:54;100410.06;;;10.83;83.40
9189;BME280;34313;50.780;6.084;2023-02-02T12:57:41;100412.75;;;10.63;83.79
9189;BME280;34313;50.780;6.084;2023-02-02T13:03:29;100405.56;;;10.46;85.10
9189;BME280;34313;50.780;6.084;2023-02-02T13:06:22;100406.28;;;10.49;85.41
9189;BME280;34313;50.780;6.084;2023-02-02T13:08:57;100407.00;;;10.53;86.82
9189;BME280;34313;50.780;6.084;2023-02-02T13:11:38;100400.66;;;10.77;86.56
9189;BME280;34313;50.780;6.084;2023-02-02T13:14:10;100411.69;;;10.67;84.04
9189;BME280;34313;50.780;6.084;2023-02-02T13:16:38;100409.75;;;10.70;84.45
9189;BME280;34313;50.780;6.084;2023-02-02T13:19:10;100409.22;;;10.62;84.29
9189;BME280;34313;50.780;6.084;2023-02-02T13:21:38;100411.44;;;10.32;84.94
9189;BME280;34313;50.780;6.084;2023-02-02T13:24:06;100410.34;;;10.15;85.95
9189;BME280;34313;50.780;6.084;2023-02-02T13:26:40;100408.63;;;10.14;86.59
9189;BME280;34313;50.780;6.084;2023-02-02T13:29:10;100420.44;;;10.04;87.21
9189;BME280;34313;50.780;6.084;2023-02-02T13:32:00;100413.44;;;10.05;87.11
9189;BME280;34313;50.780;6.084;2023-02-02T13:37:12;100395.56;;;10.11;86.04
9189;BME280;34313;50.780;6.084;2023-02-02T13:40:46;100407.31;;;10.25;85.94
9189;BME280;34313;50.780;6.084;2023-02-02T13:42:48;100412.69;;;10.21;86.00
9189;BME280;34313;50.780;6.084;2023-02-02T13:47:56;100413.53;;;10.44;84.32
9189;BME280;34313;50.780;6.084;2023-02-02T13:50:26;100403.28;;;10.38;85.02
9189;BME280;34313;50.780;6.084;2023-02-02T13:53:15;100393.22;;;10.26;84.81
9189;BME280;34313;50.780;6.084;2023-02-02T14:01:08;100394.56;;;10.36;84.30
9189;BME280;34313;50.780;6.084;2023-02-02T14:03:37;100393.16;;;10.48;83.73
9189;BME280;34313;50.780;6.084;2023-02-02T14:08:31;100417.69;;;10.50;82.78
9189;BME280;34313;50.780;6.084;2023-02-02T14:10:59;100409.16;;;10.22;83.51
9189;BME280;34313;50.780;6.084;2023-02-02T14:13:47;100407.34;;;10.45;82.60
9189;BME280;34313;50.780;6.084;2023-02-02T14:18:58;100403.47;;;10.54;82.63
9189;BME280;34313;50.780;6.084;2023-02-02T14:24:02;100409.72;;;10.51;82.55
9189;BME280;34313;50.780;6.084;2023-02-02T14:26:41;100411.19;;;10.38;82.74
9189;BME280;34313;50.780;6.084;2023-02-02T14:34:46;100409.88;;;10.26;83.59
9189;BME280;34313;50.780;6.084;2023-02-02T14:43:05;100405.34;;;10.71;82.05
9189;BME280;34313;50.780;6.084;2023-02-02T14:48:45;100404.50;;;10.50;82.34
9189;BME280;34313;50.780;6.084;2023-02-02T14:51:20;100403.13;;;10.41;82.65
9189;BME280;34313;50.780;6.084;2023-02-02T14:53:52;100404.41;;;10.10;83.39
9189;BME280;34313;50.780;6.084;2023-02-02T14:56:19;100412.44;;;10.07;83.61
9189;BME280;34313;50.780;6.084;2023-02-02T14:58:54;100414.56;;;9.97;84.32
9189;BME280;34313;50.780;6.084;2023-02-02T15:01:27;100413.56;;;9.79;84.92
9189;BME280;34313;50.780;6.084;2023-02-02T15:25:52;100451.44;;;9.53;88.08
9189;BME280;34313;50.780;6.084;2023-02-02T15:28:41;100461.84;;;9.56;87.54
9189;BME280;34313;50.780;6.084;2023-02-02T15:33:37;100462.16;;;9.49;87.71